Map

Track Data

SID SEASON NUMBER BASIN SUBBASIN NAME ISO_TIME NATURE LAT LON WMO_WIND WMO_PRES WMO_AGENCY TRACK_TYPE DIST2LAND LANDFALL IFLAG USA_AGENCY USA_ATCF_ID USA_LAT USA_LON USA_RECORD USA_STATUS USA_WIND USA_PRES USA_SSHS USA_R34_NE USA_R34_SE USA_R34_SW USA_R34_NW USA_R50_NE USA_R50_SE USA_R50_SW USA_R50_NW USA_R64_NE USA_R64_SE USA_R64_SW USA_R64_NW USA_POCI USA_ROCI USA_RMW USA_EYE TOKYO_LAT TOKYO_LON TOKYO_GRADE TOKYO_WIND TOKYO_PRES TOKYO_R50_DIR TOKYO_R50_LONG TOKYO_R50_SHORT TOKYO_R30_DIR TOKYO_R30_LONG TOKYO_R30_SHORT TOKYO_LAND CMA_LAT CMA_LON CMA_CAT CMA_WIND CMA_PRES HKO_LAT HKO_LON HKO_CAT HKO_WIND HKO_PRES NEWDELHI_LAT NEWDELHI_LON NEWDELHI_GRADE NEWDELHI_WIND NEWDELHI_PRES NEWDELHI_CI NEWDELHI_DP NEWDELHI_POCI REUNION_LAT REUNION_LON REUNION_TYPE REUNION_WIND REUNION_PRES REUNION_TNUM REUNION_CI REUNION_RMW REUNION_R34_NE REUNION_R34_SE REUNION_R34_SW REUNION_R34_NW REUNION_R50_NE REUNION_R50_SE REUNION_R50_SW REUNION_R50_NW REUNION_R64_NE REUNION_R64_SE REUNION_R64_SW REUNION_R64_NW BOM_LAT BOM_LON BOM_TYPE BOM_WIND BOM_PRES BOM_TNUM BOM_CI BOM_RMW BOM_R34_NE BOM_R34_SE BOM_R34_SW BOM_R34_NW BOM_R50_NE BOM_R50_SE BOM_R50_SW BOM_R50_NW BOM_R64_NE BOM_R64_SE BOM_R64_SW BOM_R64_NW BOM_ROCI BOM_POCI BOM_EYE BOM_POS_METHOD BOM_PRES_METHOD NADI_LAT NADI_LON NADI_CAT NADI_WIND NADI_PRES WELLINGTON_LAT WELLINGTON_LON WELLINGTON_WIND WELLINGTON_PRES DS824_LAT DS824_LON DS824_STAGE DS824_WIND DS824_PRES TD9636_LAT TD9636_LON TD9636_STAGE TD9636_WIND TD9636_PRES TD9635_LAT TD9635_LON TD9635_WIND TD9635_PRES TD9635_ROCI NEUMANN_LAT NEUMANN_LON NEUMANN_CLASS NEUMANN_WIND NEUMANN_PRES MLC_LAT MLC_LON MLC_CLASS MLC_WIND MLC_PRES USA_GUST BOM_GUST BOM_GUST_PER REUNION_GUST REUNION_GUST_PER USA_SEAHGT USA_SEARAD_NE USA_SEARAD_SE USA_SEARAD_SW USA_SEARAD_NW STORM_SPEED STORM_DIR
1995302N17174 1995 87 WP MM BRIAN 1995-10-29 00:00:00 NR 16.5000 174.200 main 2793 2793 O_____________ jtwc_wp WP301995 16.5000 174.200 15 -1 11 264
1995302N17174 1995 87 WP MM BRIAN 1995-10-29 03:00:00 NR 16.4478 173.640 main 2858 2858 P_____________ WP301995 16.4478 173.640 17 -1 11 265
1995302N17174 1995 87 WP MM BRIAN 1995-10-29 06:00:00 NR 16.4000 173.100 main 2909 2909 O_____________ jtwc_wp WP301995 16.4000 173.100 20 -1 10 265
1995302N17174 1995 87 WP MM BRIAN 1995-10-29 09:00:00 NR 16.3573 172.593 main 2960 2960 P_____________ WP301995 16.3573 172.593 20 -1 10 264
1995302N17174 1995 87 WP MM BRIAN 1995-10-29 12:00:00 NR 16.3000 172.100 main 3014 3001 O_____________ jtwc_wp WP301995 16.3000 172.100 20 -1 10 261
1995302N17174 1995 87 WP MM BRIAN 1995-10-29 15:00:00 NR 16.1999 171.600 main 3001 2969 P_____________ WP301995 16.1999 171.600 20 -1 10 258
1995302N17174 1995 87 WP MM BRIAN 1995-10-29 18:00:00 NR 16.1000 171.100 main 2969 2938 O_____________ jtwc_wp WP301995 16.1000 171.100 20 -1 10 260
1995302N17174 1995 87 WP MM BRIAN 1995-10-29 21:00:00 NR 16.0348 170.608 main 2938 2919 P_____________ WP301995 16.0348 170.608 20 -1 10 264
1995302N17174 1995 87 WP MM BRIAN 1995-10-30 00:00:00 NR 16.0000 170.100 main 2919 2896 O_____________ jtwc_wp WP301995 16.0000 170.100 20 -1 10 267
1995302N17174 1995 87 WP MM BRIAN 1995-10-30 03:00:00 NR 15.9919 169.610 main 2896 2854 P_____________ WP301995 15.9919 169.610 20 -1 11 270
1995302N17174 1995 87 WP MM BRIAN 1995-10-30 06:00:00 NR 16.0000 169.000 main 2854 2800 O_____________ jtwc_wp WP301995 16.0000 169.000 20 -1 14 270
1995302N17174 1995 87 WP MM BRIAN 1995-10-30 09:00:00 NR 15.9924 168.175 main 2800 2740 P_____________ WP301995 15.9924 168.175 22 -1 17 270
1995302N17174 1995 87 WP MM BRIAN 1995-10-30 12:00:00 NR 16.0000 167.200 main 2733 2667 O_____________ jtwc_wp WP301995 16.0000 167.200 25 -1 20 271
1995302N17174 1995 87 WP MM BRIAN 1995-10-30 15:00:00 NR 16.0427 166.143 main 2661 2613 P_____________ WP301995 16.0427 166.143 25 -1 20 273
1995302N17174 1995 87 WP MM BRIAN 1995-10-30 18:00:00 NR 16.1000 165.100 main 2607 2560 O_____________ jtwc_wp WP301995 16.1000 165.100 25 -1 19 273
1995302N17174 1995 87 WP MM BRIAN 1995-10-30 21:00:00 NR 16.1494 164.205 main 2554 2517 P_____________ WP301995 16.1494 164.205 25 -1 17 272
1995302N17174 1995 87 WP MM BRIAN 1995-10-31 00:00:00 TS 16.1600 163.320 1010 tokyo main 2512 2467 OO____________ jtwc_wp WP301995 16.2000 163.400 25 -1 16.0000 163.000 2 1010 0 0 0 17 272
1995302N17174 1995 87 WP MM BRIAN 1995-10-31 03:00:00 TS 16.2067 162.475 main 2467 2435 PP____________ WP301995 16.2422 162.620 25 -1 16.1357 162.185 2 1009 0 0 16 277
1995302N17174 1995 87 WP MM BRIAN 1995-10-31 06:00:00 TS 16.3429 161.686 1008 tokyo main 2435 2425 OO____________ jtwc_wp WP301995 16.3000 161.900 25 -1 16.4000 161.400 2 1008 0 0 0 15 286
1995302N17174 1995 87 WP MM BRIAN 1995-10-31 09:00:00 TS 16.6146 160.964 main 2430 2425 PP____________ WP301995 16.3469 161.257 25 -1 16.8823 160.670 2 1008 0 0 15 296
1995302N17174 1995 87 WP MM BRIAN 1995-10-31 12:00:00 TS 17.0000 160.300 1008 tokyo main 2436 2436 OO____________ jtwc_wp WP301995 16.5000 160.600 25 -1 17.5000 160.000 2 1008 0 0 0 16 305
1995302N17174 1995 87 WP MM BRIAN 1995-10-31 15:00:00 TS 17.5096 159.619 main 2455 2455 PP____________ WP301995 16.8549 159.823 25 -1 18.1644 159.415 2 1008 0 0 17 308
1995302N17174 1995 87 WP MM BRIAN 1995-10-31 18:00:00 TS 18.0500 158.900 1008 tokyo main 2489 2478 OO____________ jtwc_wp WP301995 17.3000 159.000 25 -1 18.8000 158.800 2 1008 0 0 0 17 305
1995302N17174 1995 87 WP MM BRIAN 1995-10-31 21:00:00 TS 18.5048 158.119 main 2502 2463 PP____________ WP301995 17.6848 158.192 27 -1 19.3248 158.045 2 1008 0 0 18 300
1995302N17174 1995 87 WP MM BRIAN 1995-11-01 00:00:00 TS 18.9700 157.240 1008 tokyo main 2448 2369 OOOO__________ jtwc_wp WP301995 18.1000 157.400 30 -1 19.7000 157.200 2 1008 0 0 0 19.7000 157.200 0 19 1008 18.8000 156.800 TD 25 1006 18 296
1995302N17174 1995 87 WP MM BRIAN 1995-11-01 03:00:00 TS 19.3133 156.367 main 2369 2285 PPPP__________ WP301995 18.5917 156.672 30 -1 19.8649 156.306 2 1008 0 0 19.8183 156.300 0 19 1008 19.1482 155.948 TD 25 1006 18 292
1995302N17174 1995 87 WP MM BRIAN 1995-11-01 06:00:00 TS 19.6357 155.479 1008 tokyo main 2285 2193 OOOO__________ jtwc_wp WP301995 19.1000 155.900 30 -1 20.0000 155.400 2 1008 0 0 0 20.0000 155.400 0 19 1008 19.5000 155.100 TD 25 1006 18 292
1995302N17174 1995 87 WP MM BRIAN 1995-11-01 09:00:00 TS 19.9999 154.565 main 2193 2108 PPPP__________ WP301995 19.5352 154.964 30 -1 20.2974 154.512 2 1008 0 0 20.2974 154.512 0 19 1007 19.8698 154.270 TD 25 1006 18 296
1995302N17174 1995 87 WP MM BRIAN 1995-11-01 12:00:00 TS 20.4250 153.725 1008 tokyo main 2102 2014 OOOO__________ jtwc_wp WP301995 20.0000 154.000 30 -1 20.7000 153.700 2 1008 0 0 0 20.7000 153.700 0 19 1006 20.3000 153.500 TD 25 1006 18 301
1995302N17174 1995 87 WP MM BRIAN 1995-11-01 15:00:00 TS 20.9116 152.970 main 2014 1923 PPPP__________ WP301995 20.5401 153.075 32 -1 21.1545 153.005 2 1006 0 0 21.1545 153.005 0 21 1005 20.7973 152.797 TD 25 1006 17 309
1995302N17174 1995 87 WP MM BRIAN 1995-11-01 18:00:00 TS 21.5000 152.325 1004 tokyo main 1918 1824 OOOO__________ jtwc_wp WP301995 21.2000 152.300 35 0 21.7000 152.400 2 1004 0 0 0 21.7000 152.400 1 23 1004 21.4000 152.200 TD 25 1006 17 318
1995302N17174 1995 87 WP MM BRIAN 1995-11-01 21:00:00 TS 22.1987 151.737 main 1818 1730 PPPP__________ WP301995 22.0120 151.738 37 0 22.3276 151.768 2 1003 0 0 22.3276 151.768 1 26 1003 22.1274 151.675 TD 27 1003 17 327
1995302N17174 1995 87 WP MM BRIAN 1995-11-02 00:00:00 TS 22.9500 151.325 1002 tokyo main 1721 1655 OOOO__________ jtwc_wp WP301995 22.9000 151.400 40 0 23.0000 151.300 2 1002 0 0 0 23.0000 151.300 1 29 1002 22.9000 151.300 TD 30 1000 16 338
1995302N17174 1995 87 WP MM BRIAN 1995-11-02 03:00:00 TS 23.6658 151.080 main 1646 1592 PPPP__________ WP301995 23.7645 151.158 42 0 23.6495 151.065 2 1001 0 0 23.6496 151.072 1 29 1001 23.5997 151.023 TD 30 1000 14 352
1995302N17174 1995 87 WP MM BRIAN 1995-11-02 06:00:00 TS 24.3750 151.100 35 1000 tokyo main 1583 1544 OOOO__________ jtwc_wp WP301995 24.6000 151.200 45 0 24.3000 151.100 3 35 1000 0 9 60 60 0 24.3000 151.100 1 29 1000 24.3000 151.000 TD 30 1000 14 11
1995302N17174 1995 87 WP MM BRIAN 1995-11-02 09:00:00 TS 25.0767 151.369 main 1542 1519 PPPP__________ WP301995 25.3724 151.572 47 0 24.9423 151.345 3 35 1000 0 9 70 70 24.9422 151.288 1 29 1000 25.0498 151.272 TD 32 999 16 27
1995302N17174 1995 87 WP MM BRIAN 1995-11-02 12:00:00 TS 25.7750 151.875 35 1000 tokyo main 1517 1505 OOOO__________ jtwc_wp WP301995 26.1000 152.200 50 0 25.6000 151.800 3 35 1000 0 9 80 80 0 25.6000 151.700 1 29 1000 25.8000 151.800 TS 35 998 17 35
1995302N17174 1995 87 WP MM BRIAN 1995-11-02 15:00:00 TS 26.4650 152.459 main 1504 1500 PPPP__________ WP301995 26.8068 152.869 50 0 26.2767 152.304 3 37 999 0 9 90 90 26.2770 152.246 1 33 999 26.4996 152.419 TS 37 997 19 41
1995302N17174 1995 87 WP MM BRIAN 1995-11-02 18:00:00 TS 27.1750 153.225 40 998 tokyo main 1499 1499 OOOO__________ jtwc_wp WP301995 27.5000 153.700 50 0 27.0000 153.000 3 40 998 0 9 100 100 0 27.0000 153.000 2 38 998 27.2000 153.200 TS 40 996 21 45
1995302N17174 1995 87 WP MM BRIAN 1995-11-02 21:00:00 TS 27.9444 154.143 main 1516 1516 PPPP__________ WP301995 28.1850 154.699 50 0 27.8295 153.902 3 40 998 0 9 100 100 27.8294 153.909 2 38 998 27.9339 154.062 TS 40 996 23 49
1995302N17174 1995 87 WP MM BRIAN 1995-11-03 00:00:00 TS 28.7000 155.225 40 998 tokyo main 1551 1551 OOOO__________ jtwc_wp WP301995 28.9000 155.800 50 0 28.6000 155.000 3 40 998 0 9 100 100 0 28.6000 155.000 2 38 998 28.7000 155.100 TS 40 996 24 54
1995302N17174 1995 87 WP MM BRIAN 1995-11-03 03:00:00 TS 29.3788 156.386 main 1608 1608 PPPP__________ WP301995 29.7139 156.878 50 0 29.1512 156.177 3 37 999 0 9 95 95 29.1512 156.177 2 38 998 29.4990 156.311 TS 37 997 25 59
1995302N17174 1995 87 WP MM BRIAN 1995-11-03 06:00:00 TS 29.9800 157.673 35 1000 tokyo main 1687 1687 OOOO__________ jtwc_wp WP301995 30.5000 158.000 50 0 29.6000 157.500 3 35 1000 0 9 90 90 0 29.6000 157.500 2 38 998 30.3000 157.700 TS 35 998 26 65
1995302N17174 1995 87 WP MM BRIAN 1995-11-03 09:00:00 TS 30.4912 159.089 main 1785 1785 PPPP__________ WP301995 31.1596 159.201 50 0 30.0132 159.003 3 35 1000 0 9 90 90 30.0132 159.003 2 38 998 31.0664 159.213 TS 32 999 26 67
1995302N17174 1995 87 WP MM BRIAN 1995-11-03 12:00:00 TS 31.0083 160.492 35 1000 tokyo main 1873 1866 OOOO__________ jtwc_wp WP301995 31.7000 160.400 50 0 30.5000 160.500 3 35 1000 0 9 90 90 0 30.5000 160.500 2 38 998 31.8000 160.800 TD 30 1000 25 64
1995302N17174 1995 87 WP MM BRIAN 1995-11-03 15:00:00 TS 31.5702 161.686 main 1869 1861 PPP___________ WP301995 32.1278 161.488 47 0 31.2036 161.825 3 35 1001 0 9 90 90 31.1882 161.808 2 38 998 TD 23 59
1995302N17174 1995 87 WP MM BRIAN 1995-11-03 18:00:00 TS 32.2222 162.822 35 1002 tokyo main 1866 1862 OOO___________ jtwc_wp WP301995 32.5000 162.600 45 0 32.0000 163.000 3 35 1002 0 9 90 90 0 32.0000 163.000 2 38 998 23 58
1995302N17174 1995 87 WP MM BRIAN 1995-11-03 21:00:00 TS 32.7868 163.968 main 1874 1872 PP____________ WP301995 32.9002 163.893 40 0 32.6733 164.043 3 1003 0 9 2 22 58
1995302N17174 1995 87 WP MM BRIAN 1995-11-04 00:00:00 ET 33.4000 165.100 1004 tokyo main 1880 1874 OO____________ jtwc_wp WP301995 33.3000 165.200 35 0 33.5000 165.000 6 1004 0 0 0 23 53
1995302N17174 1995 87 WP MM BRIAN 1995-11-04 03:00:00 ET 34.1787 166.181 main 1875 1864 PP____________ WP301995 33.7213 166.395 35 0 34.6360 165.967 6 1004 0 0 24 47
1995302N17174 1995 87 WP MM BRIAN 1995-11-04 06:00:00 ET 35.0500 167.250 1004 tokyo main 1869 1867 OO____________ jtwc_wp WP301995 34.1000 167.500 35 0 36.0000 167.000 6 1004 0 0 0 25 46
1995302N17174 1995 87 WP MM BRIAN 1995-11-04 09:00:00 ET 35.9239 168.359 main 1878 1817 PP____________ WP301995 34.3864 168.538 35 0 37.4613 168.179 6 1004 0 0 28 41
1995302N17174 1995 87 WP MM BRIAN 1995-11-04 12:00:00 ET 37.1143 169.500 1004 tokyo main 1813 1744 OO____________ jtwc_wp WP301995 34.6000 169.500 35 0 39.0000 169.500 6 1004 0 0 0 33 36
1995302N17174 1995 87 WP MM BRIAN 1995-11-04 15:00:00 ET 38.6383 170.802 main 1740 1645 PP____________ WP301995 34.7638 170.412 35 0 40.5756 170.997 6 1004 0 0 41 32
1995302N17174 1995 87 WP MM BRIAN 1995-11-04 18:00:00 ET 40.5800 172.260 1004 tokyo main 1642 1501 OO____________ jtwc_wp WP301995 34.9000 171.300 35 0 42.0000 172.500 6 1004 0 0 0 50 27
1995302N17174 1995 87 WP MM BRIAN 1995-11-04 21:00:00 ET 43.0708 173.762 main 1497 1476 _P____________ WP301995 -1 43.0708 173.762 6 1004 0 0 40 30
1995302N17174 1995 87 WP MM BRIAN 1995-11-05 00:00:00 ET 44.0000 175.000 1004 tokyo main 1482 1377 _O____________ -1 44.0000 175.000 6 1004 0 0 0 28 45
1995302N17174 1995 87 WP MM BRIAN 1995-11-05 03:00:00 ET 45.0382 176.499 main 1372 1216 _P____________ -1 45.0382 176.499 6 1003 0 0 29 47
1995302N17174 1995 87 WP MM BRIAN 1995-11-05 06:00:00 ET 46.0000 178.000 1002 tokyo main 1211 1083 _O____________ -1 46.0000 178.000 6 1002 0 0 0 26 48
1995302N17174 1995 87 WP MM BRIAN 1995-11-05 09:00:00 ET 46.8007 179.310 main 1078 964 _P____________ -1 46.8007 179.310 6 1002 0 0 23 49
1995302N17174 1995 87 EP CP BRIAN 1995-11-05 12:00:00 ET 47.5000 180.500 main 958 _O____________ -1 47.5000 180.500 6 1002 0 0 0 21 49

Digital Typhoon Data and Search

About IBTrACS Database

This database is a web-friendly format of International Best Track Archive for Climate Stewardship (IBTrACS), a global best track data archive curated by NOAA dating back to 1842.

Updated: 2021-11-26